createdAt,value
2023-05-10T00:00:00.600Z,12.88
2023-05-10T00:05:00.783Z,12.88
2023-05-10T00:10:00.753Z,12.76
2023-05-10T00:15:00.412Z,12.78
2023-05-10T00:20:00.534Z,12.78
2023-05-10T00:25:00.663Z,12.78
2023-05-10T00:30:00.436Z,12.78
2023-05-10T00:35:00.640Z,12.78
2023-05-10T00:40:00.555Z,12.78
2023-05-10T00:45:00.954Z,12.78
2023-05-10T00:50:00.644Z,12.56
2023-05-10T00:55:00.896Z,12.56
2023-05-10T01:00:00.787Z,12.56
2023-05-10T01:05:00.604Z,12.5
2023-05-10T01:10:00.660Z,12.5
2023-05-10T01:15:00.545Z,12.3
2023-05-10T01:20:00.578Z,12.3
2023-05-10T01:25:00.733Z,12.3
2023-05-10T01:30:14.293Z,12.39
2023-05-10T01:35:00.473Z,12.39
2023-05-10T01:40:00.668Z,12.5
2023-05-10T01:45:00.484Z,12.5
2023-05-10T01:50:00.674Z,12.5
2023-05-10T01:55:00.532Z,12.5
2023-05-10T02:00:00.630Z,12.5
2023-05-10T02:05:00.420Z,12.43
2023-05-10T02:10:00.590Z,12.43
2023-05-10T02:15:00.423Z,12.43
2023-05-10T02:20:00.491Z,12.43
2023-05-10T02:25:00.925Z,12.43
2023-05-10T02:30:00.849Z,12.43
2023-05-10T02:35:00.582Z,12.43
2023-05-10T02:40:00.707Z,12.43
2023-05-10T02:45:00.579Z,12.43
2023-05-10T02:50:00.427Z,12.12
2023-05-10T02:55:01.929Z,12.12
2023-05-10T03:00:00.453Z,11.89
2023-05-10T03:05:00.736Z,11.89
2023-05-10T03:10:01.078Z,11.89
2023-05-10T03:15:00.414Z,11.89
2023-05-10T03:20:00.483Z,11.89
2023-05-10T03:25:00.874Z,11.58
2023-05-10T03:30:00.429Z,11.58
2023-05-10T03:35:00.477Z,11.58
2023-05-10T03:40:00.551Z,11.58
2023-05-10T03:45:00.487Z,11.58
2023-05-10T03:50:01.175Z,11.58
2023-05-10T03:55:01.217Z,11.58
2023-05-10T04:00:00.912Z,11.85
2023-05-10T04:05:00.767Z,11.85
2023-05-10T04:10:00.674Z,11.85
2023-05-10T04:15:00.500Z,11.85
2023-05-10T04:20:01.625Z,11.85
2023-05-10T04:25:00.454Z,11.85
2023-05-10T04:30:00.967Z,11.85
2023-05-10T04:35:00.643Z,11.85
2023-05-10T04:40:00.753Z,11.85
2023-05-10T04:45:00.462Z,12.11
2023-05-10T04:50:01.163Z,12.11
2023-05-10T04:55:00.824Z,12.15
2023-05-10T05:00:00.682Z,12.15
2023-05-10T05:05:00.743Z,12.15
2023-05-10T05:10:00.841Z,12.15
2023-05-10T05:15:00.525Z,12.15
2023-05-10T05:20:01.864Z,12.15
2023-05-10T05:25:00.471Z,12.15
2023-05-10T05:30:00.662Z,12.15
2023-05-10T05:35:00.624Z,12.15
2023-05-10T05:40:01.172Z,12.66
2023-05-10T05:45:00.536Z,12.66
2023-05-10T05:50:00.646Z,12.66
2023-05-10T05:55:00.421Z,12.86
2023-05-10T06:00:00.620Z,12.86
2023-05-10T06:05:00.640Z,13.18
2023-05-10T06:10:00.559Z,13.18
2023-05-10T06:15:00.436Z,13.18
2023-05-10T06:20:00.910Z,13.69
2023-05-10T06:25:00.436Z,14.19
2023-05-10T06:30:11.934Z,14.19
2023-05-10T06:35:00.529Z,14.19
2023-05-10T06:40:00.497Z,14.19
2023-05-10T06:45:00.453Z,14.19
2023-05-10T06:50:00.699Z,14.19
2023-05-10T06:55:00.431Z,14.26
2023-05-10T07:00:00.744Z,14.26
2023-05-10T07:05:02.798Z,14.26
2023-05-10T07:10:00.582Z,14.17
2023-05-10T07:15:00.421Z,14.17
2023-05-10T07:20:00.763Z,14.17
2023-05-10T07:25:00.400Z,14.17
2023-05-10T07:30:00.620Z,14.17
2023-05-10T07:35:02.651Z,14.17
2023-05-10T07:40:00.418Z,14.17
2023-05-10T07:45:00.507Z,14.17
2023-05-10T07:50:00.722Z,14.17
2023-05-10T07:55:00.446Z,14.21
2023-05-10T08:00:00.879Z,14.21
2023-05-10T08:05:00.530Z,14.21
2023-05-10T08:10:00.458Z,14.21
2023-05-10T08:15:00.590Z,14.21
2023-05-10T08:20:00.818Z,14.21
2023-05-10T08:25:00.413Z,14.24
2023-05-10T08:30:00.796Z,14.24
2023-05-10T08:35:01.029Z,14.24
2023-05-10T08:40:00.509Z,14.24
2023-05-10T08:45:00.761Z,14.29
2023-05-10T08:50:01.635Z,14.32
2023-05-10T08:55:00.430Z,14.32
2023-05-10T09:00:00.947Z,14.32
2023-05-10T09:05:01.022Z,14.84
2023-05-10T09:10:00.427Z,14.84
2023-05-10T09:15:00.576Z,14.84
2023-05-10T09:20:01.588Z,14.84
2023-05-10T09:25:00.417Z,14.84
2023-05-10T09:30:00.582Z,14.84
2023-05-10T09:35:00.474Z,14.84
2023-05-10T09:40:00.519Z,14.84
2023-05-10T09:45:00.492Z,14.74
2023-05-10T09:50:00.645Z,14.62
2023-05-10T09:55:00.483Z,14.62
2023-05-10T10:00:01.687Z,14.62
2023-05-10T10:05:01.472Z,14.62
2023-05-10T10:10:00.432Z,14.09
2023-05-10T10:15:00.628Z,14.09
2023-05-10T10:20:00.673Z,14.62
2023-05-10T10:25:00.426Z,14.62
2023-05-10T10:30:00.549Z,14.62
2023-05-10T10:35:00.496Z,14.62
2023-05-10T10:40:00.506Z,14.59
2023-05-10T10:45:00.485Z,14.59
2023-05-10T10:50:01.172Z,14.59
2023-05-10T10:55:00.446Z,14.59
2023-05-10T11:00:00.501Z,14.15
2023-05-10T11:05:00.705Z,14.15
2023-05-10T11:10:00.699Z,14.15
2023-05-10T11:15:00.770Z,14.15
2023-05-10T11:20:00.615Z,14.15
2023-05-10T11:25:00.764Z,13.64
2023-05-10T11:30:00.564Z,13.64
2023-05-10T11:35:00.553Z,13.64
2023-05-10T11:40:00.576Z,13.57
2023-05-10T11:45:00.674Z,13.57
2023-05-10T11:50:00.969Z,13.57
2023-05-10T11:55:00.753Z,13.54
2023-05-10T12:00:00.725Z,13.54
2023-05-10T12:10:00.501Z,13.54
2023-05-10T12:15:00.487Z,13.54
2023-05-10T12:20:00.699Z,13.54
2023-05-10T12:25:00.511Z,13.54
2023-05-10T12:30:00.633Z,13.54
2023-05-10T12:35:00.552Z,13.54
2023-05-10T12:40:00.498Z,13.77
2023-05-10T12:45:00.419Z,13.77
2023-05-10T12:50:00.696Z,13.94
2023-05-10T12:55:00.423Z,13.94
2023-05-10T13:00:00.790Z,13.94
2023-05-10T13:05:00.915Z,13.94
2023-05-10T13:10:00.543Z,13.94
2023-05-10T13:15:00.419Z,13.94
2023-05-10T13:20:01.373Z,13.94
2023-05-10T13:25:00.468Z,13.94
2023-05-10T13:30:02.113Z,13.94
2023-05-10T13:35:00.423Z,13.81
2023-05-10T13:40:00.465Z,13.81
2023-05-10T13:45:00.614Z,13.81
2023-05-10T13:50:00.452Z,13.81
2023-05-10T13:55:00.489Z,13.81
2023-05-10T14:00:00.698Z,13.81
2023-05-10T14:05:00.500Z,13.81
2023-05-10T14:10:01.862Z,13.81
2023-05-10T14:15:01.348Z,13.81
2023-05-10T14:20:00.533Z,13.66
2023-05-10T14:25:00.557Z,13.66
2023-05-10T14:30:00.563Z,13.62
2023-05-10T14:35:00.418Z,13.62
2023-05-10T14:45:01.931Z,13.62
2023-05-10T14:50:00.283Z,13.62
2023-05-10T14:55:00.414Z,14.17
2023-05-10T15:00:00.583Z,14.17
2023-05-10T15:05:00.659Z,14.17
2023-05-10T15:10:00.260Z,14.17
2023-05-10T15:15:00.479Z,14.17
2023-05-10T15:20:01.813Z,14.17
2023-05-10T15:25:00.675Z,14.19
2023-05-10T15:30:00.356Z,14.19
2023-05-10T15:35:00.527Z,14.19
2023-05-10T15:40:00.739Z,14.19
2023-05-10T15:45:00.475Z,14.19
2023-05-10T15:50:00.545Z,14.19
2023-05-10T15:55:00.424Z,14.19
2023-05-10T16:00:00.618Z,14.19
2023-05-10T16:05:00.291Z,14.19
2023-05-10T16:10:00.340Z,14.19
2023-05-10T16:15:00.526Z,14.19
2023-05-10T16:20:00.270Z,14.46
2023-05-10T16:25:00.341Z,14.7
2023-05-10T16:30:00.488Z,14.7
2023-05-10T16:35:00.319Z,14.7
2023-05-10T16:40:00.450Z,14.7
2023-05-10T16:45:00.540Z,14.7
2023-05-10T16:50:00.326Z,14.7
2023-05-10T16:55:00.467Z,14.7
2023-05-10T17:00:00.775Z,14.7
2023-05-10T17:05:00.360Z,14.7
2023-05-10T17:10:00.873Z,14.7
2023-05-10T17:15:00.800Z,14.7
2023-05-10T17:20:00.342Z,14.53
2023-05-10T17:25:00.529Z,14.53
2023-05-10T17:30:00.585Z,14.42
2023-05-10T17:35:01.198Z,14.42
2023-05-10T17:40:00.305Z,14.42
2023-05-10T17:45:00.470Z,14.42
2023-05-10T17:50:00.942Z,14.42
2023-05-10T17:55:00.285Z,14.17
2023-05-10T18:00:01.124Z,14.17
2023-05-10T18:05:00.456Z,14.17
2023-05-10T18:10:00.348Z,14.17
2023-05-10T18:15:00.474Z,14.32
2023-05-10T18:20:01.354Z,14.32
2023-05-10T18:25:00.276Z,14.32
2023-05-10T18:30:00.766Z,13.64
2023-05-10T18:35:00.285Z,13.64
2023-05-10T18:40:00.975Z,13.64
2023-05-10T18:45:00.420Z,13.64
2023-05-10T18:50:00.518Z,13.64
2023-05-10T18:55:00.305Z,13.64
2023-05-10T19:00:00.557Z,13.64
2023-05-10T19:05:01.336Z,13.77
2023-05-10T19:10:02.426Z,13.77
2023-05-10T19:15:00.341Z,13.77
2023-05-10T19:20:04.026Z,13.77
2023-05-10T19:25:01.622Z,13.77
2023-05-10T19:30:00.962Z,13.77
2023-05-10T19:35:00.352Z,13.77
2023-05-10T19:40:00.930Z,13.77
2023-05-10T19:45:01.513Z,13.77
2023-05-10T19:50:01.820Z,13.77
2023-05-10T19:55:00.290Z,13.77
2023-05-10T20:00:01.429Z,13.5
2023-05-10T20:05:00.297Z,13.5
2023-05-10T20:10:00.402Z,13.5
2023-05-10T20:15:01.343Z,13.5
2023-05-10T20:20:00.905Z,13.5
2023-05-10T20:25:01.724Z,13.5
2023-05-10T20:30:01.080Z,13.5
2023-05-10T20:35:00.340Z,13.5
2023-05-10T20:40:00.349Z,13.5
2023-05-10T20:45:00.735Z,13.5
2023-05-10T20:50:01.420Z,13.5
2023-05-10T20:55:00.300Z,13.91
2023-05-10T21:00:02.581Z,13.91
2023-05-10T21:05:00.760Z,13.91
2023-05-10T21:10:00.327Z,13.91
2023-05-10T21:15:00.742Z,13.88
2023-05-10T21:20:00.387Z,13.88
2023-05-10T21:25:00.348Z,13.88
2023-05-10T21:30:00.445Z,13.88
2023-05-10T21:35:00.384Z,13.88
2023-05-10T21:40:02.859Z,13.88
2023-05-10T21:45:00.409Z,13.88
2023-05-10T21:50:00.561Z,13.88
2023-05-10T21:55:00.413Z,13.88
2023-05-10T22:00:01.351Z,13.88
2023-05-10T22:05:00.442Z,13.88
2023-05-10T22:10:00.345Z,13.88
2023-05-10T22:15:10.340Z,13.88
2023-05-10T22:20:00.956Z,13.88
2023-05-10T22:25:00.307Z,13.88
2023-05-10T22:30:00.551Z,13.38
2023-05-10T22:35:00.393Z,13.38
2023-05-10T22:40:00.422Z,13.38
2023-05-10T22:45:00.615Z,13.48
2023-05-10T22:50:00.431Z,13.48
2023-05-10T22:55:00.372Z,13.48
2023-05-10T23:00:04.285Z,13.48
2023-05-10T23:05:00.375Z,13.48
2023-05-10T23:10:01.994Z,13.48
2023-05-10T23:15:01.070Z,13.48
2023-05-10T23:20:00.618Z,13.48
2023-05-10T23:25:00.276Z,13.48
2023-05-10T23:30:03.191Z,13.88
2023-05-10T23:35:00.304Z,13.88
2023-05-10T23:40:00.393Z,13.8
2023-05-10T23:45:00.600Z,13.8
2023-05-10T23:50:00.351Z,13.8
2023-05-10T23:55:00.384Z,13.8
